sensor_id;sensor_type;location;lat;lon;timestamp;P1;durP1;ratioP1;P2;durP2;ratioP2
7563;SDS011;3823;53.586;10.040;2023-03-01T00:00:12;12.00;;;9.13;;
7563;SDS011;3823;53.586;10.040;2023-03-01T00:02:37;17.40;;;9.13;;
7563;SDS011;3823;53.586;10.040;2023-03-01T00:05:03;22.55;;;10.38;;
7563;SDS011;3823;53.586;10.040;2023-03-01T00:07:29;11.05;;;8.52;;
7563;SDS011;3823;53.586;10.040;2023-03-01T00:09:55;13.70;;;9.15;;
7563;SDS011;3823;53.586;10.040;2023-03-01T00:12:20;11.00;;;7.68;;
7563;SDS011;3823;53.586;10.040;2023-03-01T00:14:46;12.32;;;8.52;;
7563;SDS011;3823;53.586;10.040;2023-03-01T00:17:11;13.75;;;8.30;;
7563;SDS011;3823;53.586;10.040;2023-03-01T00:19:37;13.52;;;9.07;;
7563;SDS011;3823;53.586;10.040;2023-03-01T00:22:02;14.65;;;9.00;;
7563;SDS011;3823;53.586;10.040;2023-03-01T00:24:28;14.05;;;8.60;;
7563;SDS011;3823;53.586;10.040;2023-03-01T00:26:54;15.70;;;8.73;;
7563;SDS011;3823;53.586;10.040;2023-03-01T00:29:23;11.85;;;8.38;;
7563;SDS011;3823;53.586;10.040;2023-03-01T00:31:49;10.70;;;8.23;;
7563;SDS011;3823;53.586;10.040;2023-03-01T00:34:15;16.30;;;9.32;;
7563;SDS011;3823;53.586;10.040;2023-03-01T00:36:41;16.20;;;9.23;;
7563;SDS011;3823;53.586;10.040;2023-03-01T00:39:07;14.10;;;8.77;;
7563;SDS011;3823;53.586;10.040;2023-03-01T00:41:36;15.95;;;8.38;;
7563;SDS011;3823;53.586;10.040;2023-03-01T00:44:02;19.17;;;9.52;;
7563;SDS011;3823;53.586;10.040;2023-03-01T00:46:27;20.38;;;11.05;;
7563;SDS011;3823;53.586;10.040;2023-03-01T00:48:55;15.23;;;10.07;;
7563;SDS011;3823;53.586;10.040;2023-03-01T00:51:22;11.13;;;8.63;;
7563;SDS011;3823;53.586;10.040;2023-03-01T00:53:50;12.75;;;8.82;;
7563;SDS011;3823;53.586;10.040;2023-03-01T00:56:18;17.65;;;9.70;;
7563;SDS011;3823;53.586;10.040;2023-03-01T00:58:44;20.73;;;11.77;;
7563;SDS011;3823;53.586;10.040;2023-03-01T01:01:14;16.73;;;10.20;;
7563;SDS011;3823;53.586;10.040;2023-03-01T01:03:52;21.58;;;11.73;;
7563;SDS011;3823;53.586;10.040;2023-03-01T01:06:20;21.08;;;12.07;;
7563;SDS011;3823;53.586;10.040;2023-03-01T01:08:51;21.75;;;12.85;;
7563;SDS011;3823;53.586;10.040;2023-03-01T01:11:18;20.77;;;13.85;;
7563;SDS011;3823;53.586;10.040;2023-03-01T01:13:45;22.20;;;13.43;;
7563;SDS011;3823;53.586;10.040;2023-03-01T01:16:11;18.85;;;11.63;;
7563;SDS011;3823;53.586;10.040;2023-03-01T01:18:37;20.73;;;10.63;;
7563;SDS011;3823;53.586;10.040;2023-03-01T01:21:07;19.83;;;12.40;;
7563;SDS011;3823;53.586;10.040;2023-03-01T01:23:34;19.65;;;12.32;;
7563;SDS011;3823;53.586;10.040;2023-03-01T01:26:10;19.50;;;10.93;;
7563;SDS011;3823;53.586;10.040;2023-03-01T01:28:37;18.42;;;11.07;;
7563;SDS011;3823;53.586;10.040;2023-03-01T01:31:04;15.48;;;10.82;;
7563;SDS011;3823;53.586;10.040;2023-03-01T01:33:30;17.30;;;11.43;;
7563;SDS011;3823;53.586;10.040;2023-03-01T01:35:56;20.00;;;11.18;;
7563;SDS011;3823;53.586;10.040;2023-03-01T01:38:21;20.02;;;11.98;;
7563;SDS011;3823;53.586;10.040;2023-03-01T01:40:47;17.42;;;11.20;;
7563;SDS011;3823;53.586;10.040;2023-03-01T01:43:24;23.73;;;14.25;;
7563;SDS011;3823;53.586;10.040;2023-03-01T01:46:05;22.55;;;13.68;;
7563;SDS011;3823;53.586;10.040;2023-03-01T01:48:44;21.95;;;12.77;;
7563;SDS011;3823;53.586;10.040;2023-03-01T01:51:16;25.42;;;13.63;;
7563;SDS011;3823;53.586;10.040;2023-03-01T01:53:46;27.67;;;13.90;;
7563;SDS011;3823;53.586;10.040;2023-03-01T01:56:16;18.80;;;12.73;;
7563;SDS011;3823;53.586;10.040;2023-03-01T01:58:43;15.43;;;11.93;;
7563;SDS011;3823;53.586;10.040;2023-03-01T02:01:12;21.08;;;12.43;;
7563;SDS011;3823;53.586;10.040;2023-03-01T02:03:38;22.55;;;12.10;;
7563;SDS011;3823;53.586;10.040;2023-03-01T02:06:28;21.88;;;11.27;;
7563;SDS011;3823;53.586;10.040;2023-03-01T02:08:59;15.52;;;10.60;;
7563;SDS011;3823;53.586;10.040;2023-03-01T02:11:30;22.08;;;11.60;;
7563;SDS011;3823;53.586;10.040;2023-03-01T02:13:56;18.90;;;11.25;;
7563;SDS011;3823;53.586;10.040;2023-03-01T02:16:22;19.15;;;11.52;;
7563;SDS011;3823;53.586;10.040;2023-03-01T02:18:47;20.77;;;12.52;;
7563;SDS011;3823;53.586;10.040;2023-03-01T02:21:30;17.05;;;11.88;;
7563;SDS011;3823;53.586;10.040;2023-03-01T02:24:10;18.83;;;12.20;;
7563;SDS011;3823;53.586;10.040;2023-03-01T02:26:56;20.75;;;13.68;;
7563;SDS011;3823;53.586;10.040;2023-03-01T02:29:23;21.35;;;12.15;;
7563;SDS011;3823;53.586;10.040;2023-03-01T02:31:50;20.10;;;12.77;;
7563;SDS011;3823;53.586;10.040;2023-03-01T02:34:21;27.25;;;13.52;;
7563;SDS011;3823;53.586;10.040;2023-03-01T02:36:51;26.60;;;13.18;;
7563;SDS011;3823;53.586;10.040;2023-03-01T02:39:31;22.08;;;12.27;;
7563;SDS011;3823;53.586;10.040;2023-03-01T02:42:11;24.05;;;13.07;;
7563;SDS011;3823;53.586;10.040;2023-03-01T02:44:39;17.58;;;11.40;;
7563;SDS011;3823;53.586;10.040;2023-03-01T02:47:05;18.20;;;12.07;;
7563;SDS011;3823;53.586;10.040;2023-03-01T02:49:32;19.60;;;12.77;;
7563;SDS011;3823;53.586;10.040;2023-03-01T02:57:29;22.67;;;12.77;;
7563;SDS011;3823;53.586;10.040;2023-03-01T02:59:57;20.45;;;11.77;;
7563;SDS011;3823;53.586;10.040;2023-03-01T03:02:28;18.52;;;13.07;;
7563;SDS011;3823;53.586;10.040;2023-03-01T03:07:35;19.25;;;11.98;;
7563;SDS011;3823;53.586;10.040;2023-03-01T03:10:02;18.70;;;12.75;;
7563;SDS011;3823;53.586;10.040;2023-03-01T03:12:30;20.60;;;11.55;;
7563;SDS011;3823;53.586;10.040;2023-03-01T03:14:55;18.92;;;12.07;;
7563;SDS011;3823;53.586;10.040;2023-03-01T03:17:21;14.00;;;10.57;;
7563;SDS011;3823;53.586;10.040;2023-03-01T03:19:46;14.07;;;12.00;;
7563;SDS011;3823;53.586;10.040;2023-03-01T03:22:12;24.20;;;11.57;;
7563;SDS011;3823;53.586;10.040;2023-03-01T03:24:38;18.75;;;11.32;;
7563;SDS011;3823;53.586;10.040;2023-03-01T03:27:04;22.35;;;11.68;;
7563;SDS011;3823;53.586;10.040;2023-03-01T03:29:30;16.70;;;10.32;;
7563;SDS011;3823;53.586;10.040;2023-03-01T03:31:56;17.80;;;10.00;;
7563;SDS011;3823;53.586;10.040;2023-03-01T03:34:23;14.73;;;10.15;;
7563;SDS011;3823;53.586;10.040;2023-03-01T03:36:52;14.57;;;9.48;;
7563;SDS011;3823;53.586;10.040;2023-03-01T03:39:21;14.27;;;8.23;;
7563;SDS011;3823;53.586;10.040;2023-03-01T03:41:51;16.13;;;8.55;;
7563;SDS011;3823;53.586;10.040;2023-03-01T03:44:17;12.55;;;8.05;;
7563;SDS011;3823;53.586;10.040;2023-03-01T03:46:43;8.05;;;6.95;;
7563;SDS011;3823;53.586;10.040;2023-03-01T03:49:08;7.72;;;6.43;;
7563;SDS011;3823;53.586;10.040;2023-03-01T03:51:34;9.82;;;5.80;;
7563;SDS011;3823;53.586;10.040;2023-03-01T03:53:59;9.10;;;5.50;;
7563;SDS011;3823;53.586;10.040;2023-03-01T03:56:25;9.38;;;6.80;;
7563;SDS011;3823;53.586;10.040;2023-03-01T03:58:51;10.73;;;7.00;;
7563;SDS011;3823;53.586;10.040;2023-03-01T04:01:17;7.75;;;5.97;;
7563;SDS011;3823;53.586;10.040;2023-03-01T04:03:43;6.97;;;4.97;;
7563;SDS011;3823;53.586;10.040;2023-03-01T04:06:12;7.78;;;5.82;;
7563;SDS011;3823;53.586;10.040;2023-03-01T04:08:39;11.13;;;5.60;;
7563;SDS011;3823;53.586;10.040;2023-03-01T04:11:05;10.63;;;5.80;;
7563;SDS011;3823;53.586;10.040;2023-03-01T04:13:50;6.80;;;4.60;;
7563;SDS011;3823;53.586;10.040;2023-03-01T04:16:17;6.68;;;5.70;;
7563;SDS011;3823;53.586;10.040;2023-03-01T04:18:43;6.35;;;5.57;;
7563;SDS011;3823;53.586;10.040;2023-03-01T04:21:09;8.68;;;5.43;;
7563;SDS011;3823;53.586;10.040;2023-03-01T04:23:36;6.55;;;4.88;;
7563;SDS011;3823;53.586;10.040;2023-03-01T04:26:02;6.55;;;5.07;;
7563;SDS011;3823;53.586;10.040;2023-03-01T04:28:38;10.10;;;5.20;;
7563;SDS011;3823;53.586;10.040;2023-03-01T04:31:14;6.45;;;4.60;;
7563;SDS011;3823;53.586;10.040;2023-03-01T04:36:09;6.40;;;4.47;;
7563;SDS011;3823;53.586;10.040;2023-03-01T04:38:36;4.97;;;4.50;;
7563;SDS011;3823;53.586;10.040;2023-03-01T04:41:03;5.30;;;4.80;;
7563;SDS011;3823;53.586;10.040;2023-03-01T04:43:31;5.57;;;4.25;;
7563;SDS011;3823;53.586;10.040;2023-03-01T04:46:04;5.72;;;4.68;;
7563;SDS011;3823;53.586;10.040;2023-03-01T04:48:34;6.43;;;4.35;;
7563;SDS011;3823;53.586;10.040;2023-03-01T04:51:00;7.40;;;5.13;;
7563;SDS011;3823;53.586;10.040;2023-03-01T04:53:26;14.68;;;4.57;;
7563;SDS011;3823;53.586;10.040;2023-03-01T04:55:56;5.57;;;4.50;;
7563;SDS011;3823;53.586;10.040;2023-03-01T04:58:22;7.20;;;5.53;;
7563;SDS011;3823;53.586;10.040;2023-03-01T05:00:49;9.73;;;5.97;;
7563;SDS011;3823;53.586;10.040;2023-03-01T05:03:14;7.35;;;4.90;;
7563;SDS011;3823;53.586;10.040;2023-03-01T05:05:43;14.48;;;5.80;;
7563;SDS011;3823;53.586;10.040;2023-03-01T05:08:09;5.45;;;4.93;;
7563;SDS011;3823;53.586;10.040;2023-03-01T05:10:42;5.32;;;4.60;;
7563;SDS011;3823;53.586;10.040;2023-03-01T05:13:11;5.47;;;4.97;;
7563;SDS011;3823;53.586;10.040;2023-03-01T05:15:38;9.25;;;5.35;;
7563;SDS011;3823;53.586;10.040;2023-03-01T05:18:04;6.43;;;4.85;;
7563;SDS011;3823;53.586;10.040;2023-03-01T05:20:36;7.47;;;4.45;;
7563;SDS011;3823;53.586;10.040;2023-03-01T05:23:02;8.80;;;5.70;;
7563;SDS011;3823;53.586;10.040;2023-03-01T05:25:30;8.25;;;5.47;;
7563;SDS011;3823;53.586;10.040;2023-03-01T05:27:58;6.82;;;5.20;;
7563;SDS011;3823;53.586;10.040;2023-03-01T05:30:24;6.63;;;4.90;;
7563;SDS011;3823;53.586;10.040;2023-03-01T05:32:50;12.13;;;5.85;;
7563;SDS011;3823;53.586;10.040;2023-03-01T05:35:20;7.47;;;5.03;;
7563;SDS011;3823;53.586;10.040;2023-03-01T05:37:47;6.93;;;4.97;;
7563;SDS011;3823;53.586;10.040;2023-03-01T05:40:15;5.57;;;4.82;;
7563;SDS011;3823;53.586;10.040;2023-03-01T05:42:52;7.05;;;5.80;;
7563;SDS011;3823;53.586;10.040;2023-03-01T05:45:19;6.88;;;5.07;;
7563;SDS011;3823;53.586;10.040;2023-03-01T05:47:47;6.80;;;4.97;;
7563;SDS011;3823;53.586;10.040;2023-03-01T05:50:15;8.13;;;4.57;;
7563;SDS011;3823;53.586;10.040;2023-03-01T05:52:47;12.32;;;5.70;;
7563;SDS011;3823;53.586;10.040;2023-03-01T05:55:15;7.85;;;5.88;;
7563;SDS011;3823;53.586;10.040;2023-03-01T05:57:42;7.30;;;5.50;;
7563;SDS011;3823;53.586;10.040;2023-03-01T06:00:08;6.82;;;5.30;;
7563;SDS011;3823;53.586;10.040;2023-03-01T06:02:34;6.78;;;5.15;;
7563;SDS011;3823;53.586;10.040;2023-03-01T06:05:00;7.68;;;6.22;;
7563;SDS011;3823;53.586;10.040;2023-03-01T06:07:25;9.35;;;6.60;;
7563;SDS011;3823;53.586;10.040;2023-03-01T06:09:51;9.05;;;6.35;;
7563;SDS011;3823;53.586;10.040;2023-03-01T06:12:16;14.68;;;6.38;;
7563;SDS011;3823;53.586;10.040;2023-03-01T06:14:42;9.43;;;6.43;;
7563;SDS011;3823;53.586;10.040;2023-03-01T06:17:08;15.25;;;6.65;;
7563;SDS011;3823;53.586;10.040;2023-03-01T06:19:33;10.75;;;7.20;;
7563;SDS011;3823;53.586;10.040;2023-03-01T06:21:59;12.07;;;7.22;;
7563;SDS011;3823;53.586;10.040;2023-03-01T06:24:24;12.68;;;7.07;;
7563;SDS011;3823;53.586;10.040;2023-03-01T06:26:50;8.63;;;6.45;;
7563;SDS011;3823;53.586;10.040;2023-03-01T06:29:17;17.45;;;7.57;;
7563;SDS011;3823;53.586;10.040;2023-03-01T06:31:42;11.25;;;6.45;;
7563;SDS011;3823;53.586;10.040;2023-03-01T06:34:08;9.93;;;7.47;;
7563;SDS011;3823;53.586;10.040;2023-03-01T06:36:35;9.43;;;7.10;;
7563;SDS011;3823;53.586;10.040;2023-03-01T06:39:01;11.75;;;7.47;;
7563;SDS011;3823;53.586;10.040;2023-03-01T06:41:27;11.32;;;7.00;;
7563;SDS011;3823;53.586;10.040;2023-03-01T06:43:52;10.95;;;7.05;;
7563;SDS011;3823;53.586;10.040;2023-03-01T06:46:19;13.07;;;7.50;;
7563;SDS011;3823;53.586;10.040;2023-03-01T06:48:44;9.18;;;6.10;;
7563;SDS011;3823;53.586;10.040;2023-03-01T06:51:11;9.93;;;6.85;;
7563;SDS011;3823;53.586;10.040;2023-03-01T06:53:36;10.50;;;7.03;;
7563;SDS011;3823;53.586;10.040;2023-03-01T06:56:02;12.30;;;7.93;;
7563;SDS011;3823;53.586;10.040;2023-03-01T06:58:28;14.07;;;6.70;;
7563;SDS011;3823;53.586;10.040;2023-03-01T07:00:53;13.80;;;6.00;;
7563;SDS011;3823;53.586;10.040;2023-03-01T07:03:19;11.15;;;6.07;;
7563;SDS011;3823;53.586;10.040;2023-03-01T07:05:44;10.70;;;7.45;;
7563;SDS011;3823;53.586;10.040;2023-03-01T07:08:10;10.40;;;5.97;;
7563;SDS011;3823;53.586;10.040;2023-03-01T07:10:35;8.18;;;6.55;;
7563;SDS011;3823;53.586;10.040;2023-03-01T07:13:01;9.05;;;5.80;;
7563;SDS011;3823;53.586;10.040;2023-03-01T07:15:27;8.80;;;5.45;;
7563;SDS011;3823;53.586;10.040;2023-03-01T07:17:53;8.65;;;6.85;;
7563;SDS011;3823;53.586;10.040;2023-03-01T07:20:19;10.57;;;6.15;;
7563;SDS011;3823;53.586;10.040;2023-03-01T07:22:50;18.55;;;6.03;;
7563;SDS011;3823;53.586;10.040;2023-03-01T07:25:16;9.85;;;5.75;;
7563;SDS011;3823;53.586;10.040;2023-03-01T07:27:42;10.82;;;5.72;;
7563;SDS011;3823;53.586;10.040;2023-03-01T07:30:07;8.43;;;6.40;;
7563;SDS011;3823;53.586;10.040;2023-03-01T07:32:34;9.48;;;6.15;;
7563;SDS011;3823;53.586;10.040;2023-03-01T07:34:59;15.38;;;6.88;;
7563;SDS011;3823;53.586;10.040;2023-03-01T07:37:25;8.40;;;6.88;;
7563;SDS011;3823;53.586;10.040;2023-03-01T07:39:50;12.98;;;7.65;;
7563;SDS011;3823;53.586;10.040;2023-03-01T07:42:16;10.88;;;8.13;;
7563;SDS011;3823;53.586;10.040;2023-03-01T07:44:41;14.13;;;9.52;;
7563;SDS011;3823;53.586;10.040;2023-03-01T07:47:07;13.15;;;8.93;;
7563;SDS011;3823;53.586;10.040;2023-03-01T07:49:32;16.40;;;9.48;;
7563;SDS011;3823;53.586;10.040;2023-03-01T07:51:58;13.07;;;9.20;;
7563;SDS011;3823;53.586;10.040;2023-03-01T07:54:23;17.10;;;9.68;;
7563;SDS011;3823;53.586;10.040;2023-03-01T07:56:49;15.32;;;9.82;;
7563;SDS011;3823;53.586;10.040;2023-03-01T07:59:14;12.80;;;9.18;;
7563;SDS011;3823;53.586;10.040;2023-03-01T08:01:40;14.05;;;9.55;;
7563;SDS011;3823;53.586;10.040;2023-03-01T08:04:07;18.88;;;10.00;;
7563;SDS011;3823;53.586;10.040;2023-03-01T08:06:33;15.75;;;10.10;;
7563;SDS011;3823;53.586;10.040;2023-03-01T08:08:59;15.75;;;9.93;;
7563;SDS011;3823;53.586;10.040;2023-03-01T08:11:25;12.82;;;9.40;;
7563;SDS011;3823;53.586;10.040;2023-03-01T08:13:53;12.93;;;9.05;;
7563;SDS011;3823;53.586;10.040;2023-03-01T08:16:18;15.35;;;9.02;;
7563;SDS011;3823;53.586;10.040;2023-03-01T08:18:44;15.05;;;9.93;;
7563;SDS011;3823;53.586;10.040;2023-03-01T08:21:11;14.73;;;9.35;;
7563;SDS011;3823;53.586;10.040;2023-03-01T08:23:38;17.98;;;9.93;;
7563;SDS011;3823;53.586;10.040;2023-03-01T08:26:08;19.23;;;11.05;;
7563;SDS011;3823;53.586;10.040;2023-03-01T08:28:44;15.82;;;10.77;;
7563;SDS011;3823;53.586;10.040;2023-03-01T08:31:14;15.30;;;10.95;;
7563;SDS011;3823;53.586;10.040;2023-03-01T08:33:48;17.63;;;10.45;;
7563;SDS011;3823;53.586;10.040;2023-03-01T08:36:19;14.50;;;9.65;;
7563;SDS011;3823;53.586;10.040;2023-03-01T08:38:49;15.15;;;10.80;;
7563;SDS011;3823;53.586;10.040;2023-03-01T08:41:14;20.05;;;11.27;;
7563;SDS011;3823;53.586;10.040;2023-03-01T08:43:40;16.52;;;10.80;;
7563;SDS011;3823;53.586;10.040;2023-03-01T08:46:06;20.05;;;11.05;;
7563;SDS011;3823;53.586;10.040;2023-03-01T08:48:32;11.38;;;9.43;;
7563;SDS011;3823;53.586;10.040;2023-03-01T08:51:06;14.70;;;10.07;;
7563;SDS011;3823;53.586;10.040;2023-03-01T08:53:42;18.02;;;11.52;;
7563;SDS011;3823;53.586;10.040;2023-03-01T08:56:09;19.13;;;12.07;;
7563;SDS011;3823;53.586;10.040;2023-03-01T08:58:35;14.90;;;10.10;;
7563;SDS011;3823;53.586;10.040;2023-03-01T09:01:06;17.98;;;10.80;;
7563;SDS011;3823;53.586;10.040;2023-03-01T09:03:32;16.33;;;10.88;;
7563;SDS011;3823;53.586;10.040;2023-03-01T09:06:01;17.15;;;11.30;;
7563;SDS011;3823;53.586;10.040;2023-03-01T09:08:28;14.55;;;10.75;;
7563;SDS011;3823;53.586;10.040;2023-03-01T09:10:54;18.90;;;11.25;;
7563;SDS011;3823;53.586;10.040;2023-03-01T09:13:20;23.38;;;12.48;;
7563;SDS011;3823;53.586;10.040;2023-03-01T09:15:45;20.48;;;13.38;;
7563;SDS011;3823;53.586;10.040;2023-03-01T09:18:11;19.58;;;13.75;;
7563;SDS011;3823;53.586;10.040;2023-03-01T09:20:36;19.67;;;13.35;;
7563;SDS011;3823;53.586;10.040;2023-03-01T09:23:02;19.75;;;13.00;;
7563;SDS011;3823;53.586;10.040;2023-03-01T09:25:28;17.85;;;11.85;;
7563;SDS011;3823;53.586;10.040;2023-03-01T09:27:54;20.15;;;13.60;;
7563;SDS011;3823;53.586;10.040;2023-03-01T09:30:20;20.70;;;14.35;;
7563;SDS011;3823;53.586;10.040;2023-03-01T09:32:46;17.77;;;13.90;;
7563;SDS011;3823;53.586;10.040;2023-03-01T09:35:12;20.33;;;12.95;;
7563;SDS011;3823;53.586;10.040;2023-03-01T09:37:38;18.70;;;12.88;;
7563;SDS011;3823;53.586;10.040;2023-03-01T09:40:05;22.20;;;14.75;;
7563;SDS011;3823;53.586;10.040;2023-03-01T09:42:35;20.35;;;13.57;;
7563;SDS011;3823;53.586;10.040;2023-03-01T09:45:11;21.83;;;13.57;;
7563;SDS011;3823;53.586;10.040;2023-03-01T09:47:50;22.25;;;13.18;;
7563;SDS011;3823;53.586;10.040;2023-03-01T09:50:19;18.63;;;12.15;;
7563;SDS011;3823;53.586;10.040;2023-03-01T09:55:37;16.67;;;12.30;;
7563;SDS011;3823;53.586;10.040;2023-03-01T10:01:03;18.45;;;12.55;;
7563;SDS011;3823;53.586;10.040;2023-03-01T10:03:43;14.68;;;11.50;;
7563;SDS011;3823;53.586;10.040;2023-03-01T10:06:23;19.52;;;13.20;;
7563;SDS011;3823;53.586;10.040;2023-03-01T10:08:51;19.90;;;13.27;;
7563;SDS011;3823;53.586;10.040;2023-03-01T10:11:35;13.73;;;11.05;;
7563;SDS011;3823;53.586;10.040;2023-03-01T10:16:34;13.75;;;10.70;;
7563;SDS011;3823;53.586;10.040;2023-03-01T10:19:32;19.02;;;12.70;;
7563;SDS011;3823;53.586;10.040;2023-03-01T10:21:57;12.15;;;9.95;;
7563;SDS011;3823;53.586;10.040;2023-03-01T10:24:38;13.98;;;9.82;;
7563;SDS011;3823;53.586;10.040;2023-03-01T10:27:05;14.43;;;10.18;;
7563;SDS011;3823;53.586;10.040;2023-03-01T10:29:50;16.67;;;9.88;;
7563;SDS011;3823;53.586;10.040;2023-03-01T10:32:38;14.57;;;9.95;;
7563;SDS011;3823;53.586;10.040;2023-03-01T10:35:21;15.05;;;9.60;;
7563;SDS011;3823;53.586;10.040;2023-03-01T10:38:08;12.90;;;9.55;;
7563;SDS011;3823;53.586;10.040;2023-03-01T10:40:58;11.07;;;8.63;;
7563;SDS011;3823;53.586;10.040;2023-03-01T10:43:43;26.38;;;9.10;;
7563;SDS011;3823;53.586;10.040;2023-03-01T10:51:39;17.65;;;10.77;;
7563;SDS011;3823;53.586;10.040;2023-03-01T10:54:13;12.82;;;9.45;;
7563;SDS011;3823;53.586;10.040;2023-03-01T10:56:54;12.82;;;9.43;;
7563;SDS011;3823;53.586;10.040;2023-03-01T10:59:32;14.43;;;9.57;;
7563;SDS011;3823;53.586;10.040;2023-03-01T11:04:55;15.32;;;8.82;;
7563;SDS011;3823;53.586;10.040;2023-03-01T11:07:51;16.02;;;8.85;;
7563;SDS011;3823;53.586;10.040;2023-03-01T11:10:36;12.43;;;9.50;;
7563;SDS011;3823;53.586;10.040;2023-03-01T11:13:49;14.80;;;8.43;;
7563;SDS011;3823;53.586;10.040;2023-03-01T11:16:01;14.68;;;8.85;;
7563;SDS011;3823;53.586;10.040;2023-03-01T11:18:37;13.88;;;9.13;;
7563;SDS011;3823;53.586;10.040;2023-03-01T11:21:03;14.07;;;7.57;;
7563;SDS011;3823;53.586;10.040;2023-03-01T11:23:31;8.88;;;7.45;;
7563;SDS011;3823;53.586;10.040;2023-03-01T11:26:05;10.45;;;7.78;;
7563;SDS011;3823;53.586;10.040;2023-03-01T11:28:33;9.75;;;7.72;;
7563;SDS011;3823;53.586;10.040;2023-03-01T11:31:05;19.85;;;9.40;;
7563;SDS011;3823;53.586;10.040;2023-03-01T11:33:50;9.95;;;8.18;;
7563;SDS011;3823;53.586;10.040;2023-03-01T11:39:12;10.60;;;7.30;;
7563;SDS011;3823;53.586;10.040;2023-03-01T11:42:20;12.10;;;8.60;;
7563;SDS011;3823;53.586;10.040;2023-03-01T11:44:50;10.75;;;7.40;;
7563;SDS011;3823;53.586;10.040;2023-03-01T11:47:25;10.38;;;8.02;;
7563;SDS011;3823;53.586;10.040;2023-03-01T11:56:24;7.75;;;6.53;;
7563;SDS011;3823;53.586;10.040;2023-03-01T11:59:04;8.05;;;5.95;;
7563;SDS011;3823;53.586;10.040;2023-03-01T12:04:54;6.10;;;5.13;;
7563;SDS011;3823;53.586;10.040;2023-03-01T12:10:14;5.50;;;4.95;;
7563;SDS011;3823;53.586;10.040;2023-03-01T12:12:55;6.22;;;5.38;;
7563;SDS011;3823;53.586;10.040;2023-03-01T12:18:45;5.43;;;4.82;;
7563;SDS011;3823;53.586;10.040;2023-03-01T12:21:27;12.77;;;4.05;;
7563;SDS011;3823;53.586;10.040;2023-03-01T12:24:20;7.25;;;5.18;;
7563;SDS011;3823;53.586;10.040;2023-03-01T12:27:19;6.65;;;4.63;;
7563;SDS011;3823;53.586;10.040;2023-03-01T12:30:30;7.60;;;5.03;;
7563;SDS011;3823;53.586;10.040;2023-03-01T12:43:43;6.85;;;5.25;;
7563;SDS011;3823;53.586;10.040;2023-03-01T12:46:28;5.90;;;5.30;;
7563;SDS011;3823;53.586;10.040;2023-03-01T12:49:09;6.68;;;4.95;;
7563;SDS011;3823;53.586;10.040;2023-03-01T12:51:42;8.60;;;5.53;;
7563;SDS011;3823;53.586;10.040;2023-03-01T12:54:25;7.57;;;5.65;;
7563;SDS011;3823;53.586;10.040;2023-03-01T12:56:55;7.55;;;4.85;;
7563;SDS011;3823;53.586;10.040;2023-03-01T13:02:13;8.13;;;5.82;;
7563;SDS011;3823;53.586;10.040;2023-03-01T13:04:53;11.07;;;7.07;;
7563;SDS011;3823;53.586;10.040;2023-03-01T13:15:44;7.18;;;5.93;;
7563;SDS011;3823;53.586;10.040;2023-03-01T13:23:28;5.40;;;4.88;;
7563;SDS011;3823;53.586;10.040;2023-03-01T13:26:02;8.10;;;5.43;;
7563;SDS011;3823;53.586;10.040;2023-03-01T13:31:10;7.75;;;6.28;;
7563;SDS011;3823;53.586;10.040;2023-03-01T13:33:59;8.88;;;6.47;;
7563;SDS011;3823;53.586;10.040;2023-03-01T13:38:55;7.53;;;5.60;;
7563;SDS011;3823;53.586;10.040;2023-03-01T13:44:21;7.70;;;5.80;;
7563;SDS011;3823;53.586;10.040;2023-03-01T13:47:36;8.55;;;5.32;;
7563;SDS011;3823;53.586;10.040;2023-03-01T13:49:43;8.55;;;5.57;;
7563;SDS011;3823;53.586;10.040;2023-03-01T13:52:44;7.75;;;4.88;;
7563;SDS011;3823;53.586;10.040;2023-03-01T13:58:03;11.85;;;5.85;;
7563;SDS011;3823;53.586;10.040;2023-03-01T14:00:40;7.70;;;5.22;;
7563;SDS011;3823;53.586;10.040;2023-03-01T14:03:19;8.18;;;5.68;;
7563;SDS011;3823;53.586;10.040;2023-03-01T14:08:33;9.32;;;5.22;;
7563;SDS011;3823;53.586;10.040;2023-03-01T14:13:48;5.65;;;5.05;;
7563;SDS011;3823;53.586;10.040;2023-03-01T14:21:45;6.15;;;5.13;;
7563;SDS011;3823;53.586;10.040;2023-03-01T14:24:17;8.93;;;6.07;;
7563;SDS011;3823;53.586;10.040;2023-03-01T14:26:44;6.72;;;4.55;;
7563;SDS011;3823;53.586;10.040;2023-03-01T14:29:53;8.18;;;4.88;;
7563;SDS011;3823;53.586;10.040;2023-03-01T14:34:48;8.30;;;4.20;;
7563;SDS011;3823;53.586;10.040;2023-03-01T14:39:58;6.22;;;5.05;;
7563;SDS011;3823;53.586;10.040;2023-03-01T14:42:26;6.68;;;4.97;;
7563;SDS011;3823;53.586;10.040;2023-03-01T14:44:59;5.43;;;4.50;;
7563;SDS011;3823;53.586;10.040;2023-03-01T14:47:34;5.70;;;4.40;;
7563;SDS011;3823;53.586;10.040;2023-03-01T14:52:46;6.85;;;4.78;;
7563;SDS011;3823;53.586;10.040;2023-03-01T14:55:19;10.50;;;5.15;;
7563;SDS011;3823;53.586;10.040;2023-03-01T14:57:50;6.63;;;4.55;;
7563;SDS011;3823;53.586;10.040;2023-03-01T15:00:17;5.72;;;5.15;;
7563;SDS011;3823;53.586;10.040;2023-03-01T15:02:48;6.38;;;5.57;;
7563;SDS011;3823;53.586;10.040;2023-03-01T15:05:16;6.47;;;5.22;;
7563;SDS011;3823;53.586;10.040;2023-03-01T15:07:50;6.47;;;5.22;;
7563;SDS011;3823;53.586;10.040;2023-03-01T15:10:21;7.03;;;5.60;;
7563;SDS011;3823;53.586;10.040;2023-03-01T15:12:49;5.20;;;4.35;;
7563;SDS011;3823;53.586;10.040;2023-03-01T15:15:21;7.05;;;4.90;;
7563;SDS011;3823;53.586;10.040;2023-03-01T15:18:13;6.10;;;5.03;;
7563;SDS011;3823;53.586;10.040;2023-03-01T15:20:41;5.28;;;4.78;;
7563;SDS011;3823;53.586;10.040;2023-03-01T15:23:16;5.10;;;4.60;;
7563;SDS011;3823;53.586;10.040;2023-03-01T15:25:47;5.63;;;4.35;;
7563;SDS011;3823;53.586;10.040;2023-03-01T15:28:21;4.25;;;3.85;;
7563;SDS011;3823;53.586;10.040;2023-03-01T15:34:19;4.75;;;4.22;;
7563;SDS011;3823;53.586;10.040;2023-03-01T15:36:51;5.00;;;4.50;;
7563;SDS011;3823;53.586;10.040;2023-03-01T15:39:30;4.82;;;3.90;;
7563;SDS011;3823;53.586;10.040;2023-03-01T15:42:35;4.20;;;3.80;;
7563;SDS011;3823;53.586;10.040;2023-03-01T15:47:48;4.25;;;3.45;;
7563;SDS011;3823;53.586;10.040;2023-03-01T15:50:23;6.13;;;5.53;;
7563;SDS011;3823;53.586;10.040;2023-03-01T15:52:52;4.60;;;4.15;;
7563;SDS011;3823;53.586;10.040;2023-03-01T15:55:19;4.90;;;3.78;;
7563;SDS011;3823;53.586;10.040;2023-03-01T15:58:00;4.57;;;3.72;;
7563;SDS011;3823;53.586;10.040;2023-03-01T16:00:40;4.80;;;4.22;;
7563;SDS011;3823;53.586;10.040;2023-03-01T16:03:07;6.00;;;4.50;;
7563;SDS011;3823;53.586;10.040;2023-03-01T16:05:36;4.82;;;4.25;;
7563;SDS011;3823;53.586;10.040;2023-03-01T16:08:03;5.78;;;4.93;;
7563;SDS011;3823;53.586;10.040;2023-03-01T16:10:30;4.70;;;4.30;;
7563;SDS011;3823;53.586;10.040;2023-03-01T16:12:57;6.15;;;4.72;;
7563;SDS011;3823;53.586;10.040;2023-03-01T16:15:32;5.93;;;4.78;;
7563;SDS011;3823;53.586;10.040;2023-03-01T16:18:00;5.25;;;4.75;;
7563;SDS011;3823;53.586;10.040;2023-03-01T16:20:26;5.55;;;5.03;;
7563;SDS011;3823;53.586;10.040;2023-03-01T16:22:52;7.80;;;5.47;;
7563;SDS011;3823;53.586;10.040;2023-03-01T16:25:19;6.68;;;5.30;;
7563;SDS011;3823;53.586;10.040;2023-03-01T16:27:46;7.18;;;6.20;;
7563;SDS011;3823;53.586;10.040;2023-03-01T16:30:13;7.80;;;6.28;;
7563;SDS011;3823;53.586;10.040;2023-03-01T16:32:41;9.55;;;7.07;;
7563;SDS011;3823;53.586;10.040;2023-03-01T16:35:09;8.57;;;6.53;;
7563;SDS011;3823;53.586;10.040;2023-03-01T16:37:35;11.48;;;7.60;;
7563;SDS011;3823;53.586;10.040;2023-03-01T16:40:02;9.68;;;6.50;;
7563;SDS011;3823;53.586;10.040;2023-03-01T16:42:32;9.60;;;7.18;;
7563;SDS011;3823;53.586;10.040;2023-03-01T16:45:01;12.07;;;7.93;;
7563;SDS011;3823;53.586;10.040;2023-03-01T16:47:28;12.35;;;8.45;;
7563;SDS011;3823;53.586;10.040;2023-03-01T16:49:54;12.55;;;8.23;;
7563;SDS011;3823;53.586;10.040;2023-03-01T16:52:20;14.60;;;9.00;;
7563;SDS011;3823;53.586;10.040;2023-03-01T16:54:46;15.50;;;9.70;;